Time;durP1;ratioP1;P1;durP2;ratioP2;P2;SDS_P1;SDS_P2;PMS_P1;PMS_P2;Temp;Humidity;BMP_temperature;BMP_pressure;BME280_temperature;BME280_humidity;BME280_pressure;Samples;Min_cycle;Max_cycle;Signal;HPM_P1;HPM_P2
2022/03/04 00:01:11;;;;;;;20.58;12.82;;;;;;;3.51;72.69;102049.28;5055509;28;20058;-79
2022/03/04 00:03:38;;;;;;;26.13;12.98;;;;;;;3.48;72.86;102046.50;5045971;28;20029;-78
2022/03/04 00:06:03;;;;;;;25.88;14.50;;;;;;;3.47;73.70;102044.69;5068121;28;20089;-78
2022/03/04 00:08:28;;;;;;;30.10;14.50;;;;;;;3.42;73.71;102051.28;5076341;28;20511;-78
2022/03/04 00:10:54;;;;;;;24.85;14.32;;;;;;;3.42;74.50;102053.91;5062124;28;20110;-79
2022/03/04 00:13:19;;;;;;;27.65;13.57;;;;;;;3.41;74.83;102060.81;5084435;28;20210;-79
2022/03/04 00:15:44;;;;;;;27.08;14.60;;;;;;;3.27;75.06;102059.91;5062164;28;20060;-78
2022/03/04 00:18:10;;;;;;;23.67;13.27;;;;;;;3.30;76.44;102060.13;5069575;28;20083;-79
2022/03/04 00:20:35;;;;;;;23.05;13.25;;;;;;;3.30;74.29;102057.50;5069632;28;20091;-78
2022/03/04 00:23:00;;;;;;;21.65;12.88;;;;;;;3.27;74.56;102057.31;5050818;28;20029;-79
2022/03/04 00:25:26;;;;;;;22.92;13.10;;;;;;;3.23;75.26;102060.53;5065280;28;20033;-79
2022/03/04 00:27:51;;;;;;;24.25;13.63;;;;;;;3.20;75.85;102061.22;5051836;28;20029;-79
2022/03/04 00:30:16;;;;;;;22.55;13.15;;;;;;;3.19;75.01;102053.31;5066403;28;20028;-78
2022/03/04 00:32:42;;;;;;;21.05;12.82;;;;;;;3.17;75.68;102060.09;5043325;28;20544;-78
2022/03/04 00:35:08;;;;;;;26.73;14.05;;;;;;;3.17;75.15;102058.41;5066264;28;20408;-79
2022/03/04 00:37:33;;;;;;;27.45;13.85;;;;;;;3.12;76.26;102053.69;5072899;28;20037;-79
2022/03/04 00:39:59;;;;;;;24.98;13.80;;;;;;;3.06;77.81;102055.91;5054734;28;20482;-78
2022/03/04 00:42:24;;;;;;;24.90;13.90;;;;;;;2.99;76.97;102060.69;5078363;28;20048;-78
2022/03/04 00:44:50;;;;;;;22.20;13.73;;;;;;;3.02;77.57;102068.66;5076958;28;20499;-79
2022/03/04 00:47:15;;;;;;;20.60;12.32;;;;;;;2.94;77.23;102061.16;5053152;28;20079;-78
2022/03/04 00:49:40;;;;;;;27.00;13.48;;;;;;;2.87;77.67;102062.44;5066062;28;20503;-79
2022/03/04 00:52:06;;;;;;;26.20;13.80;;;;;;;2.90;78.21;102064.38;5064609;28;20036;-79
2022/03/04 00:54:31;;;;;;;25.10;13.93;;;;;;;2.82;77.96;102071.63;5069040;28;20028;-79
2022/03/04 00:56:56;;;;;;;23.58;13.35;;;;;;;2.80;77.65;102075.84;5075492;28;20099;-79
2022/03/04 00:59:22;;;;;;;24.10;12.77;;;;;;;2.77;77.42;102067.81;5070412;28;20032;-78
2022/03/04 01:01:47;;;;;;;30.05;13.95;;;;;;;2.73;77.94;102073.59;5044566;28;20032;-79
2022/03/04 01:04:12;;;;;;;29.15;14.13;;;;;;;2.70;78.55;102074.31;5064436;28;20029;-79
2022/03/04 01:06:39;;;;;;;25.70;13.80;;;;;;;2.68;78.28;102069.00;5066335;28;20016;-79
2022/03/04 01:09:05;;;;;;;24.55;13.25;;;;;;;2.69;77.93;102073.41;5064648;28;20024;-78
2022/03/04 01:11:31;;;;;;;24.27;12.77;;;;;;;2.72;77.87;102069.22;5055804;28;20021;-79
2022/03/04 01:13:56;;;;;;;24.95;13.23;;;;;;;2.70;78.34;102072.63;5067856;28;20040;-79
2022/03/04 01:16:22;;;;;;;21.58;13.00;;;;;;;2.66;79.02;102065.41;5064290;28;20116;-79
2022/03/04 01:18:47;;;;;;;22.60;13.25;;;;;;;2.63;79.47;102070.41;5055347;28;20059;-79
2022/03/04 01:21:12;;;;;;;24.33;14.25;;;;;;;2.60;80.80;102070.16;5058433;28;20064;-78
2022/03/04 01:23:38;;;;;;;25.42;13.50;;;;;;;2.59;80.75;102063.19;5053313;28;20029;-76
2022/03/04 01:26:03;;;;;;;26.38;14.05;;;;;;;2.60;80.36;102064.97;5048261;28;20473;-78
2022/03/04 01:28:29;;;;;;;22.75;13.25;;;;;;;2.53;81.17;102062.75;5050652;28;20067;-78
2022/03/04 01:30:54;;;;;;;26.58;14.15;;;;;;;2.52;81.17;102076.53;5055807;28;20032;-77
2022/03/04 01:33:19;;;;;;;26.40;13.93;;;;;;;2.46;81.10;102071.81;5075318;28;20362;-77
2022/03/04 01:35:45;;;;;;;26.90;13.40;;;;;;;2.43;81.35;102062.91;5043523;28;20048;-78
2022/03/04 01:38:11;;;;;;;27.35;14.45;;;;;;;2.36;82.35;102067.69;5062518;28;20041;-78
2022/03/04 01:40:37;;;;;;;25.15;13.82;;;;;;;2.35;82.59;102068.47;5062977;28;20115;-77
2022/03/04 01:43:03;;;;;;;23.10;13.23;;;;;;;2.31;83.73;102066.47;5052898;28;20488;-77
2022/03/04 01:45:28;;;;;;;25.65;14.40;;;;;;;2.32;85.11;102068.28;5057953;28;20031;-78
2022/03/04 01:47:54;;;;;;;25.98;14.43;;;;;;;2.19;84.42;102071.69;5064095;28;20040;-77
2022/03/04 01:50:19;;;;;;;26.08;13.48;;;;;;;2.13;85.20;102075.53;5060334;28;20025;-77
2022/03/04 01:52:45;;;;;;;25.92;14.30;;;;;;;2.04;84.99;102068.03;5071857;28;20163;-78
2022/03/04 01:55:10;;;;;;;26.48;14.60;;;;;;;2.09;85.55;102071.84;5060758;28;20107;-78
2022/03/04 01:57:37;;;;;;;26.23;15.02;;;;;;;2.05;84.76;102066.31;5065513;28;20028;-77
2022/03/04 02:00:08;;;;;;;21.55;13.23;;;;;;;2.09;86.02;102068.34;5063933;28;20481;-78
2022/03/04 02:02:33;;;;;;;26.25;14.60;;;;;;;2.03;86.06;102063.63;5059262;28;20082;-78
2022/03/04 02:04:59;;;;;;;25.33;14.98;;;;;;;1.93;86.67;102062.06;5061811;28;20029;-78
2022/03/04 02:07:24;;;;;;;29.40;14.70;;;;;;;2.00;87.14;102060.81;5049068;28;20117;-78
2022/03/04 02:09:49;;;;;;;24.63;13.73;;;;;;;1.97;85.31;102058.00;5077826;28;20060;-78
2022/03/04 02:12:15;;;;;;;27.63;14.68;;;;;;;1.98;85.59;102060.72;5053788;28;20039;-77
2022/03/04 02:14:40;;;;;;;25.92;14.20;;;;;;;1.97;85.68;102063.19;5060377;28;20499;-78
2022/03/04 02:17:05;;;;;;;27.05;14.85;;;;;;;2.00;86.92;102056.50;5059565;28;20051;-78
2022/03/04 02:19:31;;;;;;;28.08;14.65;;;;;;;1.92;86.16;102059.38;5058160;28;20048;-78
2022/03/04 02:22:00;;;;;;;24.58;13.55;;;;;;;1.88;86.55;102063.44;5073243;28;20017;-78
2022/03/04 02:24:27;;;;;;;26.15;14.82;;;;;;;1.87;86.90;102066.81;5062541;28;20025;-78
2022/03/04 02:26:54;;;;;;;29.30;15.00;;;;;;;1.83;86.97;102068.31;5070520;28;20029;-78
2022/03/04 02:29:20;;;;;;;26.77;14.93;;;;;;;1.83;88.47;102057.91;5068082;28;20029;-77
2022/03/04 02:31:46;;;;;;;30.77;15.07;;;;;;;1.77;89.47;102054.88;5069571;28;20628;-78
2022/03/04 02:34:12;;;;;;;21.73;13.60;;;;;;;1.69;88.60;102049.13;5061562;28;20025;-78
2022/03/04 02:36:38;;;;;;;25.58;14.63;;;;;;;1.66;89.52;102046.31;5060107;28;20074;-78
2022/03/04 02:39:05;;;;;;;25.90;14.93;;;;;;;1.65;89.04;102049.69;5072781;28;20083;-78
2022/03/04 02:41:34;;;;;;;26.55;15.73;;;;;;;1.62;89.34;102052.06;5059227;28;20416;-78
2022/03/04 02:44:00;;;;;;;28.08;15.95;;;;;;;1.62;90.06;102033.91;5060715;28;20032;-78
2022/03/04 02:46:26;;;;;;;25.83;15.05;;;;;;;1.55;89.41;102046.31;5079574;28;20036;-78
2022/03/04 02:48:51;;;;;;;26.17;13.95;;;;;;;1.49;90.25;102042.53;5068487;28;20112;-78
2022/03/04 02:51:17;;;;;;;27.40;14.10;;;;;;;1.46;90.47;102046.56;5050947;28;20036;-79
2022/03/04 02:53:42;;;;;;;26.85;15.07;;;;;;;1.45;90.70;102048.28;5066664;28;20016;-78
2022/03/04 02:56:07;;;;;;;29.90;16.42;;;;;;;1.42;90.81;102047.13;5048442;28;20021;-78
2022/03/04 02:58:33;;;;;;;30.92;15.98;;;;;;;1.52;90.93;102049.63;5066658;28;20024;-78
2022/03/04 03:00:58;;;;;;;25.42;14.95;;;;;;;1.45;90.33;102049.94;5076101;28;20467;-78
2022/03/04 03:03:23;;;;;;;26.52;14.35;;;;;;;1.42;91.43;102044.53;5057881;28;20093;-77
2022/03/04 03:05:49;;;;;;;26.42;14.73;;;;;;;1.36;91.65;102042.41;5059584;28;20032;-78
2022/03/04 03:08:14;;;;;;;30.42;15.95;;;;;;;1.41;90.53;102037.53;5065624;28;20017;-78
2022/03/04 03:10:40;;;;;;;30.60;15.20;;;;;;;1.39;91.07;102041.72;5068905;28;20032;-78
2022/03/04 03:13:05;;;;;;;26.35;15.07;;;;;;;1.39;90.14;102037.44;5056652;28;20044;-77
2022/03/04 03:15:31;;;;;;;30.58;14.70;;;;;;;1.34;89.95;102037.13;5080033;28;20047;-77
2022/03/04 03:17:56;;;;;;;28.65;15.57;;;;;;;1.37;90.75;102035.53;5069385;28;20109;-78
2022/03/04 03:20:22;;;;;;;29.40;15.25;;;;;;;1.43;90.11;102035.97;5075490;28;20020;-77
2022/03/04 03:22:47;;;;;;;27.33;14.98;;;;;;;1.38;89.88;102032.16;5074005;28;20028;-78
2022/03/04 03:25:13;;;;;;;27.45;14.80;;;;;;;1.44;90.84;102037.75;5064330;28;20021;-78
2022/03/04 03:27:39;;;;;;;27.23;15.60;;;;;;;1.34;91.11;102031.94;5069387;28;20025;-77
2022/03/04 03:30:06;;;;;;;29.02;16.23;;;;;;;1.32;91.01;102036.09;5057194;28;20078;-78
2022/03/04 03:32:32;;;;;;;33.03;16.40;;;;;;;1.28;90.35;102031.47;5050970;28;20024;-77
2022/03/04 03:34:57;;;;;;;29.88;15.93;;;;;;;1.31;90.00;102041.16;5061859;28;20387;-78
2022/03/04 03:37:23;;;;;;;26.77;14.55;;;;;;;1.31;89.97;102042.06;5059467;28;20056;-77
2022/03/04 03:39:48;;;;;;;33.50;16.88;;;;;;;1.33;89.88;102043.09;5060055;28;20024;-78
2022/03/04 03:42:14;;;;;;;30.52;16.00;;;;;;;1.35;88.59;102041.50;5057767;28;20055;-79
2022/03/04 03:44:39;;;;;;;29.67;14.80;;;;;;;1.28;89.15;102040.94;5063103;28;20025;-78
2022/03/04 03:47:05;;;;;;;28.15;14.68;;;;;;;1.29;90.07;102043.66;5071553;28;20484;-79
2022/03/04 03:49:30;;;;;;;28.92;15.05;;;;;;;1.26;90.09;102038.25;5067527;28;20120;-79
2022/03/04 03:51:55;;;;;;;26.48;14.98;;;;;;;1.27;89.41;102034.84;5045600;28;20040;-78
2022/03/04 03:54:21;;;;;;;26.45;14.80;;;;;;;1.20;90.29;102042.97;5040970;28;20037;-78
2022/03/04 03:56:46;;;;;;;26.70;14.68;;;;;;;1.22;90.06;102043.06;5076307;28;20319;-79
2022/03/04 03:59:12;;;;;;;29.17;16.45;;;;;;;1.07;89.82;102050.63;5060142;28;20081;-79
2022/03/04 04:01:38;;;;;;;28.02;16.02;;;;;;;1.06;89.95;102049.72;5059567;28;20017;-79
2022/03/04 04:04:05;;;;;;;28.17;14.98;;;;;;;1.06;89.95;102054.91;5070533;28;20032;-79
2022/03/04 04:06:31;;;;;;;27.80;14.70;;;;;;;1.09;90.53;102049.94;5059515;28;20024;-79
2022/03/04 04:08:56;;;;;;;31.40;15.02;;;;;;;1.05;89.33;102053.09;5044143;28;20396;-78
2022/03/04 04:11:21;;;;;;;33.25;15.77;;;;;;;1.03;89.53;102048.59;5072276;28;20031;-78
2022/03/04 04:13:47;;;;;;;30.65;15.60;;;;;;;1.02;89.95;102047.69;5043917;28;20037;-79
2022/03/04 04:16:14;;;;;;;30.30;16.13;;;;;;;1.00;89.84;102050.19;5051923;28;20032;-80
2022/03/04 04:18:40;;;;;;;29.27;15.05;;;;;;;0.99;89.90;102063.00;5068637;28;20023;-79
2022/03/04 04:21:06;;;;;;;32.75;16.15;;;;;;;0.96;89.98;102063.69;5052755;28;20072;-79
2022/03/04 04:23:32;;;;;;;28.75;15.90;;;;;;;0.95;89.92;102061.88;5074653;28;20032;-79
2022/03/04 04:25:57;;;;;;;31.30;15.52;;;;;;;0.95;89.98;102066.16;5046781;28;20040;-79
2022/03/04 04:28:25;;;;;;;31.92;16.77;;;;;;;0.94;90.38;102062.66;5068970;28;20492;-79
2022/03/04 04:30:50;;;;;;;29.10;15.32;;;;;;;0.93;90.28;102063.44;5051864;28;20020;-79
2022/03/04 04:33:17;;;;;;;28.48;15.90;;;;;;;0.94;89.92;102067.84;5060191;28;20037;-79
2022/03/04 04:35:42;;;;;;;31.23;15.15;;;;;;;0.96;90.21;102068.88;5074086;28;20047;-79
2022/03/04 04:38:08;;;;;;;35.03;17.17;;;;;;;0.98;89.26;102071.59;5071771;28;20109;-79
2022/03/04 04:40:33;;;;;;;28.95;15.25;;;;;;;0.93;89.58;102066.03;5066160;28;20047;-80
2022/03/04 04:42:58;;;;;;;35.67;16.67;;;;;;;0.95;89.92;102072.25;5066999;28;20493;-79
2022/03/04 04:45:23;;;;;;;29.58;15.57;;;;;;;0.91;90.24;102059.84;5049093;28;20023;-78
2022/03/04 04:47:49;;;;;;;33.05;16.35;;;;;;;0.90;90.74;102058.03;5066688;28;20104;-78
2022/03/04 04:50:14;;;;;;;33.80;16.33;;;;;;;0.88;90.28;102064.78;5059075;28;20407;-78
2022/03/04 04:52:39;;;;;;;30.95;15.80;;;;;;;0.87;90.57;102065.59;5039830;28;20519;-78
2022/03/04 04:55:05;;;;;;;38.72;17.17;;;;;;;0.84;90.51;102070.50;5032678;28;20100;-78
2022/03/04 04:57:30;;;;;;;34.08;16.65;;;;;;;0.83;90.83;102063.56;5034219;28;20036;-78
2022/03/04 04:59:56;;;;;;;33.33;16.70;;;;;;;0.84;91.22;102068.84;5031273;28;20029;-78
2022/03/04 05:02:21;;;;;;;30.77;16.67;;;;;;;0.83;91.31;102073.91;5050637;28;20025;-77
2022/03/04 05:04:47;;;;;;;30.83;16.88;;;;;;;0.84;91.38;102067.94;5038326;28;20025;-78
2022/03/04 05:07:13;;;;;;;32.85;16.88;;;;;;;0.82;91.11;102067.81;5062529;28;20145;-78
2022/03/04 05:09:38;;;;;;;37.88;17.65;;;;;;;0.80;91.24;102069.41;5044595;28;20029;-78
2022/03/04 05:12:04;;;;;;;31.45;16.40;;;;;;;0.80;91.53;102072.00;5030321;28;20059;-78
2022/03/04 05:14:29;;;;;;;28.67;17.00;;;;;;;0.79;91.12;102079.66;5043249;28;20103;-78
2022/03/04 05:16:55;;;;;;;33.75;15.85;;;;;;;0.77;91.26;102076.03;5049826;28;20021;-78
2022/03/04 05:19:20;;;;;;;29.83;15.48;;;;;;;0.73;91.27;102079.19;5036857;28;20025;-78
2022/03/04 05:21:45;;;;;;;34.92;16.65;;;;;;;0.70;91.67;102072.06;5048054;28;20365;-78
2022/03/04 05:24:12;;;;;;;37.95;16.85;;;;;;;0.69;91.88;102072.84;5042938;28;20397;-78
2022/03/04 05:26:40;;;;;;;30.58;16.40;;;;;;;0.65;92.04;102076.91;5046095;28;20025;-79
2022/03/04 05:29:10;;;;;;;30.15;16.60;;;;;;;0.62;92.49;102071.47;5037263;28;20393;-78
2022/03/04 05:31:37;;;;;;;31.23;17.08;;;;;;;0.61;93.00;102077.47;5046296;28;20032;-78
2022/03/04 05:34:03;;;;;;;33.05;16.10;;;;;;;0.57;92.78;102075.41;5022453;28;20432;-78
2022/03/04 05:36:28;;;;;;;36.28;17.50;;;;;;;0.56;92.99;102073.59;5019356;28;20055;-78
2022/03/04 05:38:54;;;;;;;31.88;17.10;;;;;;;0.50;92.91;102078.31;5046218;28;20035;-78
2022/03/04 05:41:20;;;;;;;36.13;16.95;;;;;;;0.52;93.25;102079.34;5043437;28;20025;-78
2022/03/04 05:43:47;;;;;;;30.45;16.67;;;;;;;0.51;93.65;102082.69;5051364;28;20042;-78
2022/03/04 05:46:13;;;;;;;32.47;16.02;;;;;;;0.48;93.78;102082.47;5046098;28;20021;-78
2022/03/04 05:48:39;;;;;;;30.92;16.95;;;;;;;0.44;94.03;102085.63;5024403;28;20041;-79
2022/03/04 05:51:05;;;;;;;32.65;17.05;;;;;;;0.39;94.10;102087.81;5060281;28;20505;-78
2022/03/04 05:53:31;;;;;;;34.05;16.85;;;;;;;0.38;94.29;102093.81;5061414;28;20056;-79
2022/03/04 05:55:56;;;;;;;31.60;16.67;;;;;;;0.34;94.50;102089.19;5048788;28;20028;-79
2022/03/04 05:58:22;;;;;;;35.08;17.05;;;;;;;0.37;95.11;102088.50;5070261;28;20043;-79
2022/03/04 06:00:47;;;;;;;32.38;17.05;;;;;;;0.31;95.16;102099.28;5048233;28;20024;-79
2022/03/04 06:03:13;;;;;;;31.50;17.27;;;;;;;0.27;95.41;102098.16;5074266;28;20387;-79
2022/03/04 06:05:39;;;;;;;33.30;17.58;;;;;;;0.24;96.28;102107.34;5071585;28;20108;-79
2022/03/04 06:08:04;;;;;;;36.05;17.92;;;;;;;0.24;96.20;102107.34;5072515;28;20112;-79
2022/03/04 06:10:29;;;;;;;34.28;16.73;;;;;;;0.18;96.29;102102.59;5050667;28;20029;-79
2022/03/04 06:12:55;;;;;;;36.28;17.27;;;;;;;0.21;96.38;102100.25;5044644;28;20384;-79
2022/03/04 06:15:20;;;;;;;35.80;17.85;;;;;;;0.19;96.66;102103.50;5062469;28;20036;-79
2022/03/04 06:17:48;;;;;;;33.80;17.38;;;;;;;0.16;96.18;102107.66;5051856;28;20058;-79
2022/03/04 06:20:14;;;;;;;33.00;16.77;;;;;;;0.15;96.42;102103.25;5067954;28;20023;-79
2022/03/04 06:22:39;;;;;;;35.70;18.02;;;;;;;0.11;96.67;102110.63;5067301;28;20029;-79
2022/03/04 06:25:05;;;;;;;36.65;17.40;;;;;;;0.12;96.88;102112.47;5062259;28;20444;-79
2022/03/04 06:27:30;;;;;;;30.30;16.58;;;;;;;0.11;96.73;102118.41;5071354;28;20392;-79
2022/03/04 06:29:56;;;;;;;34.67;17.40;;;;;;;0.11;96.74;102121.91;5071033;28;20028;-78
2022/03/04 06:32:21;;;;;;;42.38;19.77;;;;;;;0.15;97.07;102123.06;5078690;28;20401;-81
2022/03/04 06:34:47;;;;;;;32.80;16.98;;;;;;;0.13;97.20;102124.63;5051074;28;20567;-80
2022/03/04 06:37:12;;;;;;;32.85;16.65;;;;;;;0.14;97.31;102126.44;5048715;28;20107;-79
2022/03/04 06:39:38;;;;;;;36.38;18.83;;;;;;;0.11;97.01;102129.69;5058618;28;20021;-79
2022/03/04 06:42:04;;;;;;;34.10;18.48;;;;;;;0.21;98.43;102139.06;5077740;28;20074;-79
2022/03/04 06:44:29;;;;;;;34.47;17.20;;;;;;;0.17;97.69;102143.09;5075359;28;20497;-80
2022/03/04 06:46:54;;;;;;;32.70;16.88;;;;;;;0.18;98.24;102141.44;5072940;28;20028;-78
2022/03/04 06:49:20;;;;;;;35.88;18.05;;;;;;;0.16;97.84;102141.31;5062286;28;20028;-79
2022/03/04 06:51:45;;;;;;;37.17;17.83;;;;;;;0.20;98.98;102145.03;5074310;28;20105;-79
2022/03/04 06:54:10;;;;;;;40.25;19.10;;;;;;;0.17;98.50;102142.19;5073942;28;20145;-79
2022/03/04 06:56:35;;;;;;;40.33;19.50;;;;;;;0.18;98.16;102144.00;5056781;28;20030;-81
2022/03/04 06:59:01;;;;;;;37.13;18.50;;;;;;;0.23;97.77;102141.78;5058677;28;20058;-80
2022/03/04 07:01:26;;;;;;;39.78;18.77;;;;;;;0.26;97.18;102144.59;5070430;28;20048;-80
2022/03/04 07:03:53;;;;;;;34.28;17.63;;;;;;;0.27;97.27;102149.00;5079416;28;20025;-80
2022/03/04 07:06:19;;;;;;;39.10;18.58;;;;;;;0.28;97.97;102156.88;5062746;28;20032;-82
2022/03/04 07:08:45;;;;;;;40.67;18.67;;;;;;;0.31;98.15;102156.22;5066519;28;20028;-80
2022/03/04 07:11:10;;;;;;;33.20;17.23;;;;;;;0.31;97.97;102157.16;5053164;28;20465;-80
2022/03/04 07:13:35;;;;;;;34.35;17.95;;;;;;;0.38;98.27;102162.81;5055024;28;20021;-78
2022/03/04 07:16:02;;;;;;;36.63;17.50;;;;;;;0.39;97.63;102162.91;5058710;28;20027;-80
2022/03/04 07:18:31;;;;;;;36.15;18.92;;;;;;;0.43;98.12;102162.38;5077805;28;20036;-80
2022/03/04 07:20:57;;;;;;;34.30;16.58;;;;;;;0.48;97.67;102170.53;5089827;28;20152;-81
2022/03/04 07:23:23;;;;;;;34.60;17.75;;;;;;;0.50;97.43;102169.88;5087912;28;20036;-81
2022/03/04 07:25:48;;;;;;;34.10;18.77;;;;;;;0.52;97.34;102167.38;5073369;28;20028;-80
2022/03/04 07:28:14;;;;;;;40.65;17.65;;;;;;;0.58;97.42;102167.84;5052705;28;20430;-80
2022/03/04 07:30:39;;;;;;;35.60;17.65;;;;;;;0.63;96.72;102166.53;5065080;28;20087;-80
2022/03/04 07:33:05;;;;;;;36.90;17.52;;;;;;;0.66;96.13;102166.81;5061315;28;20050;-80
2022/03/04 07:35:31;;;;;;;39.10;18.80;;;;;;;0.71;96.31;102171.44;5072748;28;20087;-78
2022/03/04 07:37:56;;;;;;;36.35;17.90;;;;;;;0.76;96.13;102167.47;5052828;28;20443;-77
2022/03/04 07:40:22;;;;;;;38.83;18.73;;;;;;;0.81;95.74;102167.09;5076737;28;20373;-77
2022/03/04 07:42:47;;;;;;;33.90;17.55;;;;;;;0.86;95.89;102170.03;5076451;28;20033;-79
2022/03/04 07:45:14;;;;;;;37.88;19.50;;;;;;;0.91;95.92;102168.69;5064705;28;20052;-80
2022/03/04 07:47:41;;;;;;;32.47;16.63;;;;;;;0.96;95.52;102157.00;5054729;28;20468;-82
2022/03/04 07:50:10;;;;;;;36.13;18.08;;;;;;;1.00;95.83;102158.13;5074895;28;20033;-81
2022/03/04 07:52:36;;;;;;;33.50;18.58;;;;;;;1.08;95.63;102161.31;5073045;28;20392;-80
2022/03/04 07:55:07;;;;;;;39.30;18.30;;;;;;;1.15;95.30;102158.38;5078922;28;20099;-79
2022/03/04 07:57:32;;;;;;;42.25;19.17;;;;;;;1.21;94.71;102161.44;5077983;28;20484;-80
2022/03/04 07:59:58;;;;;;;43.35;18.92;;;;;;;1.27;94.43;102163.59;5076762;28;20020;-78
2022/03/04 08:02:23;;;;;;;39.72;18.95;;;;;;;1.35;94.31;102160.78;5062786;28;20032;-79
2022/03/04 08:04:49;;;;;;;35.38;17.92;;;;;;;1.41;93.98;102162.97;5074918;28;20025;-81
2022/03/04 08:07:15;;;;;;;34.80;18.90;;;;;;;1.50;94.36;102167.91;5078663;28;20115;-82
2022/03/04 08:09:40;;;;;;;37.45;18.77;;;;;;;1.56;93.42;102170.97;5060910;28;20021;-81
2022/03/04 08:12:07;;;;;;;37.03;17.48;;;;;;;1.64;93.06;102175.03;5077181;28;20085;-80
2022/03/04 08:14:32;;;;;;;34.10;18.05;;;;;;;1.71;92.27;102172.88;5076363;28;20095;-80
2022/03/04 08:16:58;;;;;;;30.42;16.77;;;;;;;1.78;92.45;102180.38;5057684;28;20051;-80
2022/03/04 08:19:23;;;;;;;30.13;17.10;;;;;;;1.88;91.24;102182.81;5073504;28;20525;-81
2022/03/04 08:21:48;;;;;;;32.80;17.52;;;;;;;1.95;90.78;102185.06;5080342;28;20391;-79
2022/03/04 08:24:14;;;;;;;33.13;18.35;;;;;;;2.04;89.93;102183.97;5058904;28;20021;-79
2022/03/04 08:26:41;;;;;;;32.17;17.88;;;;;;;2.13;89.16;102185.53;5058063;28;20111;-78
2022/03/04 08:29:08;;;;;;;28.13;16.02;;;;;;;2.20;89.09;102176.50;5069111;28;20071;-80
2022/03/04 08:31:33;;;;;;;32.78;16.58;;;;;;;2.31;88.43;102179.84;5077192;28;20020;-82
2022/03/04 08:33:59;;;;;;;28.10;16.00;;;;;;;2.39;86.97;102178.69;5062388;28;20017;-80
2022/03/04 08:36:24;;;;;;;28.20;15.77;;;;;;;2.47;86.50;102174.03;5073440;28;20422;-80
2022/03/04 08:38:50;;;;;;;30.48;17.15;;;;;;;2.53;86.67;102177.06;5073260;28;20024;-79
2022/03/04 08:41:15;;;;;;;30.85;17.48;;;;;;;2.61;86.14;102181.13;5068767;28;20040;-79
2022/03/04 08:43:41;;;;;;;27.83;15.98;;;;;;;2.69;86.38;102179.06;5053992;28;20088;-81
2022/03/04 08:46:07;;;;;;;29.90;15.23;;;;;;;2.81;85.25;102184.22;5065398;28;20020;-79
2022/03/04 08:48:33;;;;;;;31.83;17.20;;;;;;;2.93;84.50;102174.69;5055511;28;20488;-81
2022/03/04 08:50:58;;;;;;;29.23;16.00;;;;;;;3.01;84.34;102173.50;5072682;28;20060;-81
2022/03/04 08:53:23;;;;;;;30.52;15.13;;;;;;;3.10;84.03;102174.94;5074441;28;20044;-78
2022/03/04 08:55:50;;;;;;;50.15;17.88;;;;;;;3.22;83.51;102174.88;5057717;28;20021;-81
2022/03/04 08:58:16;;;;;;;30.33;15.65;;;;;;;3.36;81.16;102169.81;5074129;28;20089;-81
2022/03/04 09:00:41;;;;;;;30.92;16.40;;;;;;;3.48;81.37;102168.81;5056833;28;20021;-80
2022/03/04 09:03:06;;;;;;;32.13;16.25;;;;;;;3.58;81.24;102168.63;5077099;28;20032;-81
2022/03/04 09:05:32;;;;;;;28.98;17.08;;;;;;;3.77;80.50;102168.16;5077354;28;20111;-80
2022/03/04 09:07:57;;;;;;;30.27;15.32;;;;;;;3.92;79.10;102167.31;5058887;28;20117;-79
2022/03/04 09:10:23;;;;;;;28.52;16.10;;;;;;;4.09;78.41;102164.09;5072320;28;20376;-81
2022/03/04 09:12:48;;;;;;;26.58;15.23;;;;;;;4.24;77.78;102174.59;5063349;28;20092;-80
2022/03/04 09:15:14;;;;;;;32.53;15.27;;;;;;;4.45;77.17;102168.94;5046781;28;20016;-80
2022/03/04 09:17:40;;;;;;;27.58;15.85;;;;;;;4.74;75.28;102170.78;5055394;28;20079;-80
2022/03/04 09:20:06;;;;;;;24.23;15.38;;;;;;;4.94;76.00;102166.78;5034767;28;20032;-81
2022/03/04 09:22:31;;;;;;;23.80;14.68;;;;;;;5.18;73.33;102166.44;5042344;28;20021;-80
2022/03/04 09:24:57;;;;;;;26.83;15.98;;;;;;;5.44;73.28;102174.94;5070766;28;20021;-80
2022/03/04 09:27:23;;;;;;;28.60;15.73;;;;;;;5.64;72.60;102174.38;5041065;28;20107;-80
2022/03/04 09:29:48;;;;;;;25.55;15.25;;;;;;;6.02;71.71;102183.59;5040851;28;20112;-79
2022/03/04 09:32:14;;;;;;;33.08;16.67;;;;;;;6.31;70.69;102175.53;5074578;28;20121;-81
2022/03/04 09:34:39;;;;;;;30.98;16.40;;;;;;;6.60;71.70;102178.88;5067813;28;20020;-80
2022/03/04 09:37:05;;;;;;;29.67;16.90;;;;;;;6.87;69.77;102169.00;5084734;28;20080;-81
2022/03/04 09:39:30;;;;;;;29.15;16.42;;;;;;;7.28;68.90;102178.09;5081729;28;20023;-82
2022/03/04 09:41:57;;;;;;;31.98;16.55;;;;;;;7.38;68.56;102184.69;5055503;28;20070;-83
2022/03/04 09:44:23;;;;;;;29.90;16.42;;;;;;;7.65;67.46;102192.16;5064512;28;20345;-82
2022/03/04 09:46:49;;;;;;;28.88;16.38;;;;;;;8.01;65.67;102184.34;5075853;28;20020;-83
2022/03/04 09:49:16;;;;;;;27.50;16.95;;;;;;;7.85;64.60;102185.31;5071857;28;20044;-81
2022/03/04 09:51:42;;;;;;;25.73;14.88;;;;;;;8.04;63.25;102184.47;5066485;28;20507;-80
2022/03/04 09:54:07;;;;;;;27.55;14.93;;;;;;;8.31;61.69;102179.66;5036557;28;20025;-80
2022/03/04 09:56:33;;;;;;;26.67;14.93;;;;;;;8.54;61.87;102185.13;5059770;28;20028;-79
2022/03/04 09:58:58;;;;;;;26.92;16.55;;;;;;;8.46;61.78;102191.75;5058575;28;20510;-79
2022/03/04 10:01:24;;;;;;;23.92;15.10;;;;;;;8.46;60.39;102184.78;5057247;28;20452;-79
2022/03/04 10:03:51;;;;;;;26.42;16.02;;;;;;;8.52;60.50;102189.41;5070399;28;20036;-79
2022/03/04 10:06:18;;;;;;;21.27;13.88;;;;;;;8.62;62.23;102189.00;5056855;28;20025;-80
2022/03/04 10:08:50;;;;;;;31.75;15.95;;;;;;;8.89;61.28;102173.63;5057948;28;20081;-79
2022/03/04 10:11:36;;;;;;;28.60;15.43;;;;;;;8.83;60.28;102173.34;5057973;28;20421;-80
2022/03/04 10:14:09;;;;;;;27.00;16.00;;;;;;;9.01;58.39;102165.41;5057203;28;20092;-79
2022/03/04 10:16:37;;;;;;;25.20;15.75;;;;;;;9.10;59.47;102159.63;5057109;28;20422;-79
2022/03/04 10:19:11;;;;;;;27.17;15.45;;;;;;;9.03;57.71;102153.22;5071294;28;20036;-77
2022/03/04 10:21:54;;;;;;;31.92;17.17;;;;;;;9.11;58.88;102161.44;5053378;28;20072;-79
2022/03/04 10:24:38;;;;;;;25.88;16.65;;;;;;;9.23;59.53;102155.84;5062590;28;20025;-78
2022/03/04 10:27:09;;;;;;;35.40;16.30;;;;;;;9.43;59.64;102160.22;5055258;28;20059;-76
2022/03/04 10:29:37;;;;;;;24.05;14.48;;;;;;;9.58;59.48;102156.44;5066377;28;20047;-80
2022/03/04 10:32:05;;;;;;;25.33;15.60;;;;;;;9.75;57.55;102157.13;5064067;28;20024;-80
2022/03/04 10:34:48;;;;;;;29.77;17.17;;;;;;;9.91;57.25;102158.66;5069077;28;20035;-79
2022/03/04 10:37:15;;;;;;;28.60;16.70;;;;;;;9.88;57.23;102158.53;5062917;28;20088;-79
2022/03/04 10:39:59;;;;;;;26.05;15.85;;;;;;;10.29;56.62;102156.66;5074189;28;20044;-78
2022/03/04 10:42:56;;;;;;;28.75;16.55;;;;;;;10.30;57.88;102159.31;5068405;28;20029;-75
2022/03/04 10:45:29;;;;;;;25.25;14.75;;;;;;;10.56;56.54;102151.56;5071240;28;20024;-76
2022/03/04 10:48:00;;;;;;;25.00;16.13;;;;;;;10.84;55.55;102159.59;5067450;28;20391;-75
2022/03/04 10:50:28;;;;;;;22.38;14.48;;;;;;;11.08;51.49;102147.34;5065910;28;20025;-75
2022/03/04 10:53:03;;;;;;;22.92;15.20;;;;;;;10.92;55.01;102152.88;5040978;28;20128;-75
2022/03/04 10:55:32;;;;;;;26.15;16.60;;;;;;;11.09;53.76;102154.38;5039783;28;20025;-75
2022/03/04 10:57:59;;;;;;;30.42;17.25;;;;;;;11.23;53.67;102152.25;5058320;28;20038;-75
2022/03/04 11:00:34;;;;;;;22.38;15.55;;;;;;;11.58;51.81;102146.38;5049679;28;20122;-75
2022/03/04 11:03:00;;;;;;;24.02;16.27;;;;;;;11.69;52.66;102150.25;5042078;28;20025;-77
2022/03/04 11:05:26;;;;;;;23.35;15.98;;;;;;;11.94;51.01;102145.78;5056337;28;20030;-78
2022/03/04 11:07:52;;;;;;;29.30;16.70;;;;;;;12.53;46.48;102142.31;5047834;28;20484;-77
2022/03/04 11:10:19;;;;;;;22.58;16.23;;;;;;;12.37;49.24;102149.81;5045385;28;20022;-77
2022/03/04 11:12:46;;;;;;;25.92;16.58;;;;;;;12.51;47.70;102144.00;5037343;28;20025;-77